< < Back
Terminal Aerodrome Forecast


Current Version              Previous Versions:   1  2  3  4  5  6  7  8  9  

Terminal Aerodrome Forecast

207
FTUS42 KJAX 110532
TAFJAX
TAF
KJAX 110532Z 1106/1206 25003KT P6SM SKC
     FM111800 21009KT P6SM FEW250=



Latest METAR

281
SAUS80 KWBC 110600
MTRJAX
METAR KJAX 110556Z 27004KT 10SM CLR 01/M06 A3023 RMK AO2 SLP238
T00111056 10061 21006 55000


USA.gov is the U.S. government's official web portal to all federal, state and local government web resources and services.